sensor_id;sensor_type;location;lat;lon;timestamp;temperature;humidity
62991;DHT22;49084;48.204;16.202;2022-08-19T00:01:22;18.60;99.90
62991;DHT22;49084;48.204;16.202;2022-08-19T00:03:48;18.60;99.90
62991;DHT22;49084;48.204;16.202;2022-08-19T00:06:14;18.60;99.90
62991;DHT22;49084;48.204;16.202;2022-08-19T00:08:40;18.60;99.90
62991;DHT22;49084;48.204;16.202;2022-08-19T00:11:06;18.50;99.90
62991;DHT22;49084;48.204;16.202;2022-08-19T00:13:33;18.50;99.90
62991;DHT22;49084;48.204;16.202;2022-08-19T00:15:59;18.40;99.90
62991;DHT22;49084;48.204;16.202;2022-08-19T00:18:25;18.30;99.90
62991;DHT22;49084;48.204;16.202;2022-08-19T00:20:51;18.30;99.90
62991;DHT22;49084;48.204;16.202;2022-08-19T00:23:16;18.30;99.90
62991;DHT22;49084;48.204;16.202;2022-08-19T00:25:42;18.20;99.90
62991;DHT22;49084;48.204;16.202;2022-08-19T00:28:08;18.20;99.90
62991;DHT22;49084;48.204;16.202;2022-08-19T00:30:34;18.30;99.90
62991;DHT22;49084;48.204;16.202;2022-08-19T00:32:59;18.30;99.90
62991;DHT22;49084;48.204;16.202;2022-08-19T00:35:25;18.30;99.90
62991;DHT22;49084;48.204;16.202;2022-08-19T00:37:53;18.30;99.90
62991;DHT22;49084;48.204;16.202;2022-08-19T00:40:19;18.30;99.90
62991;DHT22;49084;48.204;16.202;2022-08-19T00:42:45;18.30;99.90
62991;DHT22;49084;48.204;16.202;2022-08-19T00:45:17;18.20;99.90
62991;DHT22;49084;48.204;16.202;2022-08-19T00:47:44;18.10;99.90
62991;DHT22;49084;48.204;16.202;2022-08-19T00:50:12;18.10;99.90
62991;DHT22;49084;48.204;16.202;2022-08-19T00:52:42;18.10;99.90
62991;DHT22;49084;48.204;16.202;2022-08-19T00:55:13;18.10;99.90
62991;DHT22;49084;48.204;16.202;2022-08-19T00:57:44;18.10;99.90
62991;DHT22;49084;48.204;16.202;2022-08-19T01:00:14;18.10;99.90
62991;DHT22;49084;48.204;16.202;2022-08-19T01:02:41;18.10;99.90
62991;DHT22;49084;48.204;16.202;2022-08-19T01:05:23;18.00;99.90
62991;DHT22;49084;48.204;16.202;2022-08-19T01:07:50;18.00;99.90
62991;DHT22;49084;48.204;16.202;2022-08-19T01:10:19;18.00;99.90
62991;DHT22;49084;48.204;16.202;2022-08-19T01:12:46;18.00;99.90
62991;DHT22;49084;48.204;16.202;2022-08-19T01:15:15;18.00;99.90
62991;DHT22;49084;48.204;16.202;2022-08-19T01:17:42;18.00;99.90
62991;DHT22;49084;48.204;16.202;2022-08-19T01:20:18;17.90;99.90
62991;DHT22;49084;48.204;16.202;2022-08-19T01:22:50;17.90;99.90
62991;DHT22;49084;48.204;16.202;2022-08-19T01:25:19;17.90;99.90
62991;DHT22;49084;48.204;16.202;2022-08-19T01:27:48;17.90;99.90
62991;DHT22;49084;48.204;16.202;2022-08-19T01:30:18;17.90;99.90
62991;DHT22;49084;48.204;16.202;2022-08-19T01:32:43;18.00;99.90
62991;DHT22;49084;48.204;16.202;2022-08-19T01:35:11;17.90;99.90
62991;DHT22;49084;48.204;16.202;2022-08-19T01:38:07;17.90;99.90
62991;DHT22;49084;48.204;16.202;2022-08-19T01:40:35;18.00;99.90
62991;DHT22;49084;48.204;16.202;2022-08-19T01:43:02;17.90;99.90
62991;DHT22;49084;48.204;16.202;2022-08-19T01:45:30;18.00;99.90
62991;DHT22;49084;48.204;16.202;2022-08-19T01:47:57;18.00;99.90
62991;DHT22;49084;48.204;16.202;2022-08-19T01:50:23;18.00;99.90
62991;DHT22;49084;48.204;16.202;2022-08-19T01:52:49;18.00;99.90
62991;DHT22;49084;48.204;16.202;2022-08-19T01:55:17;18.00;99.90
62991;DHT22;49084;48.204;16.202;2022-08-19T01:57:50;18.00;99.90
62991;DHT22;49084;48.204;16.202;2022-08-19T02:00:19;18.00;99.90
62991;DHT22;49084;48.204;16.202;2022-08-19T02:02:45;18.00;99.90
62991;DHT22;49084;48.204;16.202;2022-08-19T02:05:11;18.10;99.90
62991;DHT22;49084;48.204;16.202;2022-08-19T02:07:39;18.10;99.90
62991;DHT22;49084;48.204;16.202;2022-08-19T02:10:07;18.20;99.90
62991;DHT22;49084;48.204;16.202;2022-08-19T02:12:33;18.20;99.90
62991;DHT22;49084;48.204;16.202;2022-08-19T02:14:59;18.20;99.90
62991;DHT22;49084;48.204;16.202;2022-08-19T02:17:26;18.20;99.90
62991;DHT22;49084;48.204;16.202;2022-08-19T02:19:54;18.20;99.90
62991;DHT22;49084;48.204;16.202;2022-08-19T02:22:20;18.20;99.90
62991;DHT22;49084;48.204;16.202;2022-08-19T02:24:46;18.20;99.90
62991;DHT22;49084;48.204;16.202;2022-08-19T02:27:13;18.20;99.90
62991;DHT22;49084;48.204;16.202;2022-08-19T02:29:39;18.20;99.90
62991;DHT22;49084;48.204;16.202;2022-08-19T02:32:04;18.20;99.90
62991;DHT22;49084;48.204;16.202;2022-08-19T02:34:30;18.20;99.90
62991;DHT22;49084;48.204;16.202;2022-08-19T02:36:56;18.20;99.90
62991;DHT22;49084;48.204;16.202;2022-08-19T02:39:21;18.20;99.90
62991;DHT22;49084;48.204;16.202;2022-08-19T02:41:47;18.20;99.90
62991;DHT22;49084;48.204;16.202;2022-08-19T02:44:13;18.30;99.90
62991;DHT22;49084;48.204;16.202;2022-08-19T02:46:39;18.40;99.90
62991;DHT22;49084;48.204;16.202;2022-08-19T02:49:06;18.40;99.90
62991;DHT22;49084;48.204;16.202;2022-08-19T02:51:39;18.40;99.90
62991;DHT22;49084;48.204;16.202;2022-08-19T02:54:07;18.50;99.90
62991;DHT22;49084;48.204;16.202;2022-08-19T02:56:37;18.50;99.90
62991;DHT22;49084;48.204;16.202;2022-08-19T02:59:04;18.50;99.90
62991;DHT22;49084;48.204;16.202;2022-08-19T03:01:37;18.50;99.90
62991;DHT22;49084;48.204;16.202;2022-08-19T03:04:06;18.50;99.90
62991;DHT22;49084;48.204;16.202;2022-08-19T03:06:37;18.50;99.90
62991;DHT22;49084;48.204;16.202;2022-08-19T03:09:03;18.50;99.90
62991;DHT22;49084;48.204;16.202;2022-08-19T03:11:30;18.50;99.90
62991;DHT22;49084;48.204;16.202;2022-08-19T03:13:56;18.50;99.90
62991;DHT22;49084;48.204;16.202;2022-08-19T03:16:25;18.50;99.90
62991;DHT22;49084;48.204;16.202;2022-08-19T03:18:52;18.50;99.90
62991;DHT22;49084;48.204;16.202;2022-08-19T03:21:24;18.50;99.90
62991;DHT22;49084;48.204;16.202;2022-08-19T03:23:53;18.50;99.90
62991;DHT22;49084;48.204;16.202;2022-08-19T03:26:19;18.50;99.90
62991;DHT22;49084;48.204;16.202;2022-08-19T03:28:45;18.50;99.90
62991;DHT22;49084;48.204;16.202;2022-08-19T03:31:16;18.60;99.90
62991;DHT22;49084;48.204;16.202;2022-08-19T03:33:43;18.60;99.90
62991;DHT22;49084;48.204;16.202;2022-08-19T03:36:15;18.60;99.90
62991;DHT22;49084;48.204;16.202;2022-08-19T03:38:50;18.70;99.90
62991;DHT22;49084;48.204;16.202;2022-08-19T03:41:20;18.80;99.90
62991;DHT22;49084;48.204;16.202;2022-08-19T03:43:47;18.80;99.90
62991;DHT22;49084;48.204;16.202;2022-08-19T03:46:18;18.80;99.90
62991;DHT22;49084;48.204;16.202;2022-08-19T03:48:47;18.70;99.90
62991;DHT22;49084;48.204;16.202;2022-08-19T03:51:18;18.70;99.90
62991;DHT22;49084;48.204;16.202;2022-08-19T03:53:46;18.70;99.90
62991;DHT22;49084;48.204;16.202;2022-08-19T03:56:12;18.70;99.90
62991;DHT22;49084;48.204;16.202;2022-08-19T03:58:40;18.70;99.90
62991;DHT22;49084;48.204;16.202;2022-08-19T04:01:11;18.70;99.90
62991;DHT22;49084;48.204;16.202;2022-08-19T04:03:38;18.70;99.90
62991;DHT22;49084;48.204;16.202;2022-08-19T04:06:16;18.80;99.90
62991;DHT22;49084;48.204;16.202;2022-08-19T04:08:42;18.80;99.90
62991;DHT22;49084;48.204;16.202;2022-08-19T04:11:10;18.80;99.90
62991;DHT22;49084;48.204;16.202;2022-08-19T04:13:36;18.90;99.90
62991;DHT22;49084;48.204;16.202;2022-08-19T04:16:05;18.90;99.90
62991;DHT22;49084;48.204;16.202;2022-08-19T04:18:31;19.00;99.90
62991;DHT22;49084;48.204;16.202;2022-08-19T04:20:58;19.00;99.90
62991;DHT22;49084;48.204;16.202;2022-08-19T04:23:24;19.00;99.90
62991;DHT22;49084;48.204;16.202;2022-08-19T04:25:50;19.10;99.90
62991;DHT22;49084;48.204;16.202;2022-08-19T04:28:16;19.20;99.90
62991;DHT22;49084;48.204;16.202;2022-08-19T04:30:44;19.20;99.90
62991;DHT22;49084;48.204;16.202;2022-08-19T04:33:12;19.30;99.90
62991;DHT22;49084;48.204;16.202;2022-08-19T04:35:41;19.40;99.90
62991;DHT22;49084;48.204;16.202;2022-08-19T04:38:07;19.50;99.90
62991;DHT22;49084;48.204;16.202;2022-08-19T04:40:34;19.60;99.90
62991;DHT22;49084;48.204;16.202;2022-08-19T04:43:18;19.60;99.90
62991;DHT22;49084;48.204;16.202;2022-08-19T04:45:44;19.70;99.90
62991;DHT22;49084;48.204;16.202;2022-08-19T04:48:12;19.80;99.90
62991;DHT22;49084;48.204;16.202;2022-08-19T04:50:42;19.80;99.90
62991;DHT22;49084;48.204;16.202;2022-08-19T04:53:08;19.90;99.90
62991;DHT22;49084;48.204;16.202;2022-08-19T04:55:33;20.00;99.90
62991;DHT22;49084;48.204;16.202;2022-08-19T04:58:00;20.00;99.90
62991;DHT22;49084;48.204;16.202;2022-08-19T05:00:27;20.10;99.90
62991;DHT22;49084;48.204;16.202;2022-08-19T05:02:53;20.20;99.90
62991;DHT22;49084;48.204;16.202;2022-08-19T05:05:19;20.20;99.90
62991;DHT22;49084;48.204;16.202;2022-08-19T05:07:45;20.20;99.90
62991;DHT22;49084;48.204;16.202;2022-08-19T05:10:10;20.30;99.90
62991;DHT22;49084;48.204;16.202;2022-08-19T05:12:37;20.30;99.90
62991;DHT22;49084;48.204;16.202;2022-08-19T05:15:05;20.40;99.90
62991;DHT22;49084;48.204;16.202;2022-08-19T05:17:31;20.40;99.90
62991;DHT22;49084;48.204;16.202;2022-08-19T05:19:57;20.50;99.90
62991;DHT22;49084;48.204;16.202;2022-08-19T05:22:43;20.60;99.90
62991;DHT22;49084;48.204;16.202;2022-08-19T05:25:12;20.60;99.90
62991;DHT22;49084;48.204;16.202;2022-08-19T05:27:38;20.60;99.90
62991;DHT22;49084;48.204;16.202;2022-08-19T05:30:04;20.70;99.90
62991;DHT22;49084;48.204;16.202;2022-08-19T05:32:30;20.80;99.90
62991;DHT22;49084;48.204;16.202;2022-08-19T05:34:56;20.90;99.90
62991;DHT22;49084;48.204;16.202;2022-08-19T05:37:22;21.00;99.90
62991;DHT22;49084;48.204;16.202;2022-08-19T05:39:48;21.10;99.90
62991;DHT22;49084;48.204;16.202;2022-08-19T05:42:14;21.20;99.90
62991;DHT22;49084;48.204;16.202;2022-08-19T05:44:43;21.30;99.90
62991;DHT22;49084;48.204;16.202;2022-08-19T05:47:13;21.40;99.90
62991;DHT22;49084;48.204;16.202;2022-08-19T05:49:40;21.50;99.90
62991;DHT22;49084;48.204;16.202;2022-08-19T05:52:09;21.60;99.90
62991;DHT22;49084;48.204;16.202;2022-08-19T05:54:37;21.70;99.90
62991;DHT22;49084;48.204;16.202;2022-08-19T05:57:06;22.10;99.90
62991;DHT22;49084;48.204;16.202;2022-08-19T05:59:31;22.30;99.90
62991;DHT22;49084;48.204;16.202;2022-08-19T06:01:58;22.50;99.90
62991;DHT22;49084;48.204;16.202;2022-08-19T06:04:26;22.70;99.90
62991;DHT22;49084;48.204;16.202;2022-08-19T06:06:52;22.80;99.90
62991;DHT22;49084;48.204;16.202;2022-08-19T06:09:19;22.90;99.90
62991;DHT22;49084;48.204;16.202;2022-08-19T06:11:48;22.80;99.90
62991;DHT22;49084;48.204;16.202;2022-08-19T06:14:15;22.70;99.90
62991;DHT22;49084;48.204;16.202;2022-08-19T06:16:43;22.80;99.90
62991;DHT22;49084;48.204;16.202;2022-08-19T06:19:14;22.80;99.90
62991;DHT22;49084;48.204;16.202;2022-08-19T06:21:44;22.90;99.90
62991;DHT22;49084;48.204;16.202;2022-08-19T06:24:11;22.90;99.90
62991;DHT22;49084;48.204;16.202;2022-08-19T06:26:39;22.90;99.90
62991;DHT22;49084;48.204;16.202;2022-08-19T06:29:06;23.00;99.90
62991;DHT22;49084;48.204;16.202;2022-08-19T06:31:34;23.10;99.90
62991;DHT22;49084;48.204;16.202;2022-08-19T06:34:01;23.10;99.90
62991;DHT22;49084;48.204;16.202;2022-08-19T06:36:36;23.00;99.90
62991;DHT22;49084;48.204;16.202;2022-08-19T06:39:08;22.90;99.90
62991;DHT22;49084;48.204;16.202;2022-08-19T06:41:36;22.70;99.90
62991;DHT22;49084;48.204;16.202;2022-08-19T06:44:02;22.70;99.90
62991;DHT22;49084;48.204;16.202;2022-08-19T06:46:28;22.80;99.90
62991;DHT22;49084;48.204;16.202;2022-08-19T06:48:54;22.80;99.90
62991;DHT22;49084;48.204;16.202;2022-08-19T06:51:21;22.90;99.90
62991;DHT22;49084;48.204;16.202;2022-08-19T06:53:48;23.10;99.90
62991;DHT22;49084;48.204;16.202;2022-08-19T06:56:16;23.30;99.90
62991;DHT22;49084;48.204;16.202;2022-08-19T06:58:42;23.50;99.90
62991;DHT22;49084;48.204;16.202;2022-08-19T07:01:07;23.90;99.90
62991;DHT22;49084;48.204;16.202;2022-08-19T07:03:34;24.10;99.90
62991;DHT22;49084;48.204;16.202;2022-08-19T07:06:05;24.30;99.90
62991;DHT22;49084;48.204;16.202;2022-08-19T07:08:33;24.60;99.90
62991;DHT22;49084;48.204;16.202;2022-08-19T07:10:59;24.80;99.90
62991;DHT22;49084;48.204;16.202;2022-08-19T07:13:24;24.90;99.90
62991;DHT22;49084;48.204;16.202;2022-08-19T07:15:50;24.90;99.90
62991;DHT22;49084;48.204;16.202;2022-08-19T07:18:19;25.00;99.90
62991;DHT22;49084;48.204;16.202;2022-08-19T07:20:47;25.00;99.90
62991;DHT22;49084;48.204;16.202;2022-08-19T07:23:13;25.00;99.90
62991;DHT22;49084;48.204;16.202;2022-08-19T07:25:39;25.00;99.90
62991;DHT22;49084;48.204;16.202;2022-08-19T07:28:05;24.80;99.90
62991;DHT22;49084;48.204;16.202;2022-08-19T07:30:35;24.80;99.90
62991;DHT22;49084;48.204;16.202;2022-08-19T07:33:01;24.80;99.90
62991;DHT22;49084;48.204;16.202;2022-08-19T07:35:26;24.80;99.90
62991;DHT22;49084;48.204;16.202;2022-08-19T07:37:53;24.90;99.90
62991;DHT22;49084;48.204;16.202;2022-08-19T07:40:19;25.00;99.90
62991;DHT22;49084;48.204;16.202;2022-08-19T07:42:45;25.10;99.90
62991;DHT22;49084;48.204;16.202;2022-08-19T07:45:10;25.30;99.90
62991;DHT22;49084;48.204;16.202;2022-08-19T07:47:36;25.60;99.90
62991;DHT22;49084;48.204;16.202;2022-08-19T07:50:05;25.60;99.90
62991;DHT22;49084;48.204;16.202;2022-08-19T07:52:32;25.60;99.90
62991;DHT22;49084;48.204;16.202;2022-08-19T07:54:58;25.70;99.90
62991;DHT22;49084;48.204;16.202;2022-08-19T07:57:25;25.90;99.90
62991;DHT22;49084;48.204;16.202;2022-08-19T07:59:50;26.30;99.90
62991;DHT22;49084;48.204;16.202;2022-08-19T08:02:16;26.70;99.90
62991;DHT22;49084;48.204;16.202;2022-08-19T08:04:42;27.00;99.90
62991;DHT22;49084;48.204;16.202;2022-08-19T08:07:26;27.40;99.90
62991;DHT22;49084;48.204;16.202;2022-08-19T08:10:10;27.80;99.90
62991;DHT22;49084;48.204;16.202;2022-08-19T08:12:39;28.10;99.50
62991;DHT22;49084;48.204;16.202;2022-08-19T08:15:11;28.30;99.00
62991;DHT22;49084;48.204;16.202;2022-08-19T08:17:42;28.60;98.20
62991;DHT22;49084;48.204;16.202;2022-08-19T08:20:08;28.70;97.50
62991;DHT22;49084;48.204;16.202;2022-08-19T08:22:34;28.90;96.90
62991;DHT22;49084;48.204;16.202;2022-08-19T08:25:21;29.20;96.80
62991;DHT22;49084;48.204;16.202;2022-08-19T08:27:48;29.60;95.70
62991;DHT22;49084;48.204;16.202;2022-08-19T08:30:26;29.80;94.70
62991;DHT22;49084;48.204;16.202;2022-08-19T08:32:52;29.60;94.20
62991;DHT22;49084;48.204;16.202;2022-08-19T08:35:20;29.50;94.20
62991;DHT22;49084;48.204;16.202;2022-08-19T08:37:47;29.20;94.10
62991;DHT22;49084;48.204;16.202;2022-08-19T08:43:24;28.80;94.50
62991;DHT22;49084;48.204;16.202;2022-08-19T08:51:29;28.90;93.90
62991;DHT22;49084;48.204;16.202;2022-08-19T08:53:58;29.20;93.30
62991;DHT22;49084;48.204;16.202;2022-08-19T08:56:24;29.30;93.20
62991;DHT22;49084;48.204;16.202;2022-08-19T09:01:25;30.00;91.10
62991;DHT22;49084;48.204;16.202;2022-08-19T09:03:51;30.50;90.00
62991;DHT22;49084;48.204;16.202;2022-08-19T09:06:32;31.00;87.60
62991;DHT22;49084;48.204;16.202;2022-08-19T09:09:16;31.00;86.90
62991;DHT22;49084;48.204;16.202;2022-08-19T09:11:56;31.40;85.80
62991;DHT22;49084;48.204;16.202;2022-08-19T09:16:52;32.00;81.00
62991;DHT22;49084;48.204;16.202;2022-08-19T09:19:17;32.20;79.00
62991;DHT22;49084;48.204;16.202;2022-08-19T09:21:44;32.30;76.70
62991;DHT22;49084;48.204;16.202;2022-08-19T09:24:10;32.50;75.70
62991;DHT22;49084;48.204;16.202;2022-08-19T09:26:36;32.90;74.80
62991;DHT22;49084;48.204;16.202;2022-08-19T09:29:02;33.20;72.70
62991;DHT22;49084;48.204;16.202;2022-08-19T09:31:30;33.10;71.80
62991;DHT22;49084;48.204;16.202;2022-08-19T09:33:58;33.40;71.20
62991;DHT22;49084;48.204;16.202;2022-08-19T09:36:26;33.60;70.00
62991;DHT22;49084;48.204;16.202;2022-08-19T09:38:55;33.60;69.40
62991;DHT22;49084;48.204;16.202;2022-08-19T09:41:22;33.80;68.00
62991;DHT22;49084;48.204;16.202;2022-08-19T09:43:50;33.70;67.90
62991;DHT22;49084;48.204;16.202;2022-08-19T09:46:18;33.80;67.20
62991;DHT22;49084;48.204;16.202;2022-08-19T09:48:46;33.90;66.40
62991;DHT22;49084;48.204;16.202;2022-08-19T09:51:16;34.00;65.30
62991;DHT22;49084;48.204;16.202;2022-08-19T09:53:46;34.10;64.80
62991;DHT22;49084;48.204;16.202;2022-08-19T09:56:13;34.40;64.00
62991;DHT22;49084;48.204;16.202;2022-08-19T09:58:40;35.00;60.70
62991;DHT22;49084;48.204;16.202;2022-08-19T10:01:07;35.30;60.90
62991;DHT22;49084;48.204;16.202;2022-08-19T10:03:35;35.00;60.20
62991;DHT22;49084;48.204;16.202;2022-08-19T10:06:03;33.90;61.70
62991;DHT22;49084;48.204;16.202;2022-08-19T10:08:32;33.00;61.70
62991;DHT22;49084;48.204;16.202;2022-08-19T10:10:59;32.60;63.90
62991;DHT22;49084;48.204;16.202;2022-08-19T10:13:28;32.70;63.40
62991;DHT22;49084;48.204;16.202;2022-08-19T10:15:56;32.40;64.20
62991;DHT22;49084;48.204;16.202;2022-08-19T10:18:25;32.00;65.50
62991;DHT22;49084;48.204;16.202;2022-08-19T10:20:51;31.60;66.20
62991;DHT22;49084;48.204;16.202;2022-08-19T10:23:20;31.50;67.20
62991;DHT22;49084;48.204;16.202;2022-08-19T10:25:46;31.40;68.10
62991;DHT22;49084;48.204;16.202;2022-08-19T10:28:13;31.10;69.70
62991;DHT22;49084;48.204;16.202;2022-08-19T10:30:39;31.10;70.70
62991;DHT22;49084;48.204;16.202;2022-08-19T10:33:05;30.80;71.40
62991;DHT22;49084;48.204;16.202;2022-08-19T10:35:31;30.70;71.80
62991;DHT22;49084;48.204;16.202;2022-08-19T10:37:57;31.10;71.80
62991;DHT22;49084;48.204;16.202;2022-08-19T10:40:25;31.60;69.20
62991;DHT22;49084;48.204;16.202;2022-08-19T10:42:52;31.70;67.00
62991;DHT22;49084;48.204;16.202;2022-08-19T10:45:18;31.50;68.00
62991;DHT22;49084;48.204;16.202;2022-08-19T10:47:43;31.20;68.00
62991;DHT22;49084;48.204;16.202;2022-08-19T10:50:09;31.10;69.00
62991;DHT22;49084;48.204;16.202;2022-08-19T10:52:53;30.60;69.10
62991;DHT22;49084;48.204;16.202;2022-08-19T10:55:21;30.20;70.80
62991;DHT22;49084;48.204;16.202;2022-08-19T10:58:19;29.90;71.60
62991;DHT22;49084;48.204;16.202;2022-08-19T11:00:52;29.70;74.60
62991;DHT22;49084;48.204;16.202;2022-08-19T11:03:19;29.20;78.50
62991;DHT22;49084;48.204;16.202;2022-08-19T11:05:44;28.80;80.20
62991;DHT22;49084;48.204;16.202;2022-08-19T11:08:10;28.40;82.40
62991;DHT22;49084;48.204;16.202;2022-08-19T11:10:40;28.30;84.00
62991;DHT22;49084;48.204;16.202;2022-08-19T11:13:06;28.60;86.50
62991;DHT22;49084;48.204;16.202;2022-08-19T11:15:32;28.60;86.10
62991;DHT22;49084;48.204;16.202;2022-08-19T11:17:58;28.70;86.30
62991;DHT22;49084;48.204;16.202;2022-08-19T11:20:24;28.60;86.30
62991;DHT22;49084;48.204;16.202;2022-08-19T11:22:52;28.50;85.40
62991;DHT22;49084;48.204;16.202;2022-08-19T11:25:19;28.50;86.40
62991;DHT22;49084;48.204;16.202;2022-08-19T11:27:45;28.30;87.80
62991;DHT22;49084;48.204;16.202;2022-08-19T11:30:12;28.10;87.60
62991;DHT22;49084;48.204;16.202;2022-08-19T11:32:41;27.80;88.80
62991;DHT22;49084;48.204;16.202;2022-08-19T11:35:07;27.60;89.00
62991;DHT22;49084;48.204;16.202;2022-08-19T11:37:33;27.60;90.40
62991;DHT22;49084;48.204;16.202;2022-08-19T11:40:03;27.70;90.40
62991;DHT22;49084;48.204;16.202;2022-08-19T11:42:29;28.00;89.70
62991;DHT22;49084;48.204;16.202;2022-08-19T11:45:13;28.20;89.90
62991;DHT22;49084;48.204;16.202;2022-08-19T11:47:39;28.30;89.00
62991;DHT22;49084;48.204;16.202;2022-08-19T11:50:05;28.30;88.00
62991;DHT22;49084;48.204;16.202;2022-08-19T11:52:31;28.30;87.60
62991;DHT22;49084;48.204;16.202;2022-08-19T11:54:57;29.10;86.40
62991;DHT22;49084;48.204;16.202;2022-08-19T11:57:22;30.30;84.20
62991;DHT22;49084;48.204;16.202;2022-08-19T11:59:49;31.40;78.50
62991;DHT22;49084;48.204;16.202;2022-08-19T12:02:15;31.70;73.30
62991;DHT22;49084;48.204;16.202;2022-08-19T12:04:41;32.30;70.80
62991;DHT22;49084;48.204;16.202;2022-08-19T12:07:06;31.80;70.00
62991;DHT22;49084;48.204;16.202;2022-08-19T12:09:32;31.30;70.00
62991;DHT22;49084;48.204;16.202;2022-08-19T12:12:00;31.40;70.80
62991;DHT22;49084;48.204;16.202;2022-08-19T12:14:27;31.70;69.10
62991;DHT22;49084;48.204;16.202;2022-08-19T12:16:55;31.70;67.50
62991;DHT22;49084;48.204;16.202;2022-08-19T12:19:21;31.70;68.80
62991;DHT22;49084;48.204;16.202;2022-08-19T12:21:47;31.90;66.10
62991;DHT22;49084;48.204;16.202;2022-08-19T12:24:13;32.00;64.80
62991;DHT22;49084;48.204;16.202;2022-08-19T12:26:38;32.80;64.10
62991;DHT22;49084;48.204;16.202;2022-08-19T12:29:04;32.90;62.20
62991;DHT22;49084;48.204;16.202;2022-08-19T12:31:30;32.20;62.60
62991;DHT22;49084;48.204;16.202;2022-08-19T12:33:57;31.70;64.10
62991;DHT22;49084;48.204;16.202;2022-08-19T12:36:23;31.70;64.00
62991;DHT22;49084;48.204;16.202;2022-08-19T12:38:49;31.70;63.40
62991;DHT22;49084;48.204;16.202;2022-08-19T12:41:16;30.70;64.70
62991;DHT22;49084;48.204;16.202;2022-08-19T12:43:44;30.50;65.60
62991;DHT22;49084;48.204;16.202;2022-08-19T12:46:10;29.90;67.00
62991;DHT22;49084;48.204;16.202;2022-08-19T12:48:37;29.40;68.00
62991;DHT22;49084;48.204;16.202;2022-08-19T12:51:11;29.10;69.00
62991;DHT22;49084;48.204;16.202;2022-08-19T12:53:38;28.80;70.00
62991;DHT22;49084;48.204;16.202;2022-08-19T12:56:04;28.70;70.80
62991;DHT22;49084;48.204;16.202;2022-08-19T12:58:30;28.70;71.90
62991;DHT22;49084;48.204;16.202;2022-08-19T13:00:56;28.70;71.80
62991;DHT22;49084;48.204;16.202;2022-08-19T13:03:22;28.60;72.20
62991;DHT22;49084;48.204;16.202;2022-08-19T13:05:52;28.40;72.90
62991;DHT22;49084;48.204;16.202;2022-08-19T13:08:18;28.30;73.90
62991;DHT22;49084;48.204;16.202;2022-08-19T13:10:44;28.20;74.50
62991;DHT22;49084;48.204;16.202;2022-08-19T13:13:09;28.10;75.70
62991;DHT22;49084;48.204;16.202;2022-08-19T13:15:38;27.80;77.40
62991;DHT22;49084;48.204;16.202;2022-08-19T13:18:06;27.70;78.40
62991;DHT22;49084;48.204;16.202;2022-08-19T13:20:32;27.60;81.50
62991;DHT22;49084;48.204;16.202;2022-08-19T13:22:58;27.60;83.00
62991;DHT22;49084;48.204;16.202;2022-08-19T13:25:24;27.50;85.00
62991;DHT22;49084;48.204;16.202;2022-08-19T13:27:51;27.40;85.10
62991;DHT22;49084;48.204;16.202;2022-08-19T13:30:18;27.40;85.30
62991;DHT22;49084;48.204;16.202;2022-08-19T13:33:03;27.40;85.90
62991;DHT22;49084;48.204;16.202;2022-08-19T13:35:47;27.30;86.70
62991;DHT22;49084;48.204;16.202;2022-08-19T13:38:14;27.10;86.40
62991;DHT22;49084;48.204;16.202;2022-08-19T13:40:41;27.00;88.40
62991;DHT22;49084;48.204;16.202;2022-08-19T13:43:08;27.00;89.50
62991;DHT22;49084;48.204;16.202;2022-08-19T13:45:34;27.00;90.40
62991;DHT22;49084;48.204;16.202;2022-08-19T13:48:03;26.90;90.10
62991;DHT22;49084;48.204;16.202;2022-08-19T13:50:32;26.90;89.80
62991;DHT22;49084;48.204;16.202;2022-08-19T13:52:59;27.00;90.60
62991;DHT22;49084;48.204;16.202;2022-08-19T13:55:26;27.10;90.20
62991;DHT22;49084;48.204;16.202;2022-08-19T13:57:57;27.20;90.10
62991;DHT22;49084;48.204;16.202;2022-08-19T14:00:25;27.30;89.30
62991;DHT22;49084;48.204;16.202;2022-08-19T14:02:53;27.40;88.90
62991;DHT22;49084;48.204;16.202;2022-08-19T14:05:20;27.50;88.70
62991;DHT22;49084;48.204;16.202;2022-08-19T14:07:46;27.60;88.10
62991;DHT22;49084;48.204;16.202;2022-08-19T14:10:14;27.60;87.10
62991;DHT22;49084;48.204;16.202;2022-08-19T14:12:40;27.60;86.90
62991;DHT22;49084;48.204;16.202;2022-08-19T14:15:08;27.70;86.70
62991;DHT22;49084;48.204;16.202;2022-08-19T14:17:37;27.90;85.50
62991;DHT22;49084;48.204;16.202;2022-08-19T14:20:05;28.00;84.50
62991;DHT22;49084;48.204;16.202;2022-08-19T14:22:40;28.30;83.50
62991;DHT22;49084;48.204;16.202;2022-08-19T14:25:08;28.60;82.00
62991;DHT22;49084;48.204;16.202;2022-08-19T14:27:36;28.50;80.80
62991;DHT22;49084;48.204;16.202;2022-08-19T14:30:03;28.90;79.90
62991;DHT22;49084;48.204;16.202;2022-08-19T14:32:29;29.50;77.80
62991;DHT22;49084;48.204;16.202;2022-08-19T14:34:55;29.90;75.70
62991;DHT22;49084;48.204;16.202;2022-08-19T14:37:20;29.90;73.10
62991;DHT22;49084;48.204;16.202;2022-08-19T14:39:47;30.00;72.00
62991;DHT22;49084;48.204;16.202;2022-08-19T14:42:13;30.40;70.60
62991;DHT22;49084;48.204;16.202;2022-08-19T14:44:41;30.10;70.20
62991;DHT22;49084;48.204;16.202;2022-08-19T14:47:07;29.90;69.90
62991;DHT22;49084;48.204;16.202;2022-08-19T14:49:34;29.80;70.60
62991;DHT22;49084;48.204;16.202;2022-08-19T14:52:00;29.90;70.40
62991;DHT22;49084;48.204;16.202;2022-08-19T14:54:25;29.90;70.30
62991;DHT22;49084;48.204;16.202;2022-08-19T14:56:51;30.00;69.60
62991;DHT22;49084;48.204;16.202;2022-08-19T14:59:17;30.30;68.70
62991;DHT22;49084;48.204;16.202;2022-08-19T15:01:43;30.00;67.90
62991;DHT22;49084;48.204;16.202;2022-08-19T15:04:09;30.10;68.40
62991;DHT22;49084;48.204;16.202;2022-08-19T15:06:35;30.30;67.20
62991;DHT22;49084;48.204;16.202;2022-08-19T15:09:01;30.30;66.70
62991;DHT22;49084;48.204;16.202;2022-08-19T15:11:28;30.00;66.40
62991;DHT22;49084;48.204;16.202;2022-08-19T15:13:57;30.20;66.80
62991;DHT22;49084;48.204;16.202;2022-08-19T15:16:24;31.10;64.50
62991;DHT22;49084;48.204;16.202;2022-08-19T15:18:55;31.10;63.10
62991;DHT22;49084;48.204;16.202;2022-08-19T15:21:23;31.30;61.80
62991;DHT22;49084;48.204;16.202;2022-08-19T15:23:50;31.20;60.00
62991;DHT22;49084;48.204;16.202;2022-08-19T15:26:17;30.80;60.00
62991;DHT22;49084;48.204;16.202;2022-08-19T15:28:44;30.20;61.00
62991;DHT22;49084;48.204;16.202;2022-08-19T15:31:11;29.70;61.90
62991;DHT22;49084;48.204;16.202;2022-08-19T15:33:38;29.30;62.90